Nearby METAR Reports

 

KMEV - Minden, Nevada, USA
Distance from station: N 3mi, 5km
Updated: Mon, 23-Apr-2018 5:35pm PDT
Clear
Clear
 Wind from N
Wind: N 6 mph , 9 km/h
Temperature: 70°F , 21°C
Dew Point: 23°F , -5°C
Humidity: 17%
Barometer: 30.11 inHg , 1019.6 hPa
Clouds: Clear
Visibility: 10 miles , 16 km
2018/04/24 00:35 KMEV 240035Z AUTO 36005KT 10SM CLR 21/M05 A3011 RMK AO2
KCXP - Carson City, Nevada, USA
Distance from station: N 10mi, 16km
Updated: Mon, 23-Apr-2018 5:35pm PDT
Clear
Clear
 Wind from ENE
Wind: ENE 15 mph , 24 km/h, Gust: 18 mph , 30 km/h
Temperature: 72°F , 22°C
Dew Point: 19°F , -7°C
Humidity: 14%
Barometer: 30.12 inHg , 1020 hPa
Clouds: Clear
Visibility: 10 miles , 16 km
2018/04/24 00:35 KCXP 240035Z AUTO 06013G16KT 10SM CLR 22/M07 A3012 RMK AO2
 
KTVL - South Lake Tahoe, California, USA
Distance from station: WSW 18mi, 29km
Updated: Mon, 23-Apr-2018 4:53pm PDT
Clear
Clear
 Wind from varies
Wind: varies 3 mph , 6 km/h
Temperature: 63°F , 17°C
Dew Point: 25°F , -4°C
Humidity: 24%
Barometer: 30.16 inHg , 1021.3 hPa
Clouds: Clear
Visibility: 10 miles , 16 km
2018/04/23 23:53 KTVL 232353Z AUTO VRB03KT 10SM CLR 17/M04 A3016 RMK AO2 SLP187 T01721044 10178 20117 58009
KTRK - Truckee Tahoe, California, USA
Distance from station: NW 29mi, 46km
Updated: Mon, 23-Apr-2018 5:45pm PDT
Clear
Clear
 Wind from ENE
Wind: ENE 6 mph , 9 km/h
Temperature: 66°F , 19°C
Dew Point: 21°F , -6°C
Humidity: 18%
Barometer: 30.14 inHg , 1020.7 hPa
Clouds: Clear
Visibility: 10 miles , 16 km
2018/04/24 00:45 KTRK 240045Z 07005KT 10SM SKC 19/M06 A3014
 
KRNO - Reno, Nevada, USA
Distance from station: N 31mi, 50km
Updated: Mon, 23-Apr-2018 4:55pm PDT
Few Clouds
Few Clouds
 Wind from NE
Wind: NE 8 mph , 13 km/h
Temperature: 72°F , 22°C
Dew Point: 19°F , -7°C
Humidity: 14%
Barometer: 30.10 inHg , 1019.3 hPa
Clouds: Few Clouds
Visibility: 10 miles , 16 km
Cloud details: Few Clouds 6000 ft
Few Clouds 21000 ft
2018/04/23 23:55 KRNO 232355Z 04007KT 10SM FEW060 FEW210 22/M07 A3010 RMK AO2 SLP160 CCSL DSNT SE THRU S T02221067 10233 20172 58016
KRTS - Reno/Stead, Nevada, USA
Distance from station: NNW 44mi, 71km
Updated: Mon, 23-Apr-2018 5:35pm PDT
Clear
Clear
 Wind from ENE
Wind: ENE 10 mph , 17 km/h
Temperature: 66°F , 19°C
Dew Point: 18°F , -8°C
Humidity: 15%
Barometer: 30.14 inHg , 1020.7 hPa
Clouds: Clear
Visibility: 10 miles , 16 km
2018/04/24 00:35 KRTS 240035Z AUTO 07009KT 10SM CLR 19/M08 A3014 RMK AO2
 
KBLU - Emigrant Gap, California, USA
Distance from station: WNW 55mi, 89km
Updated: Mon, 23-Apr-2018 4:52pm PDT
Clear
Clear
 Wind from W
Wind: W 8 mph , 13 km/h
Temperature: 64°F , 18°C
Dew Point: 39°F , 4°C
Humidity: 40%
Barometer: 30.14 inHg , 1020.7 hPa
Clouds: Clear
Visibility: 10 miles , 16 km
2018/04/23 23:52 KBLU 232352Z AUTO 27007KT 10SM CLR 18/04 A3014 RMK AO2 SLP145 T01830039 10194 20167 58007
KPVF - Placerville, California, USA
Distance from station: WSW 60mi, 96km
Updated: Mon, 23-Apr-2018 5:35pm PDT
Clear
Clear
 Wind from WSW
Wind: WSW 3 mph , 6 km/h
Temperature: 75°F , 24°C
Dew Point: 68°F , 20°C
Humidity: 78%
Barometer: 30.03 inHg , 1016.9 hPa
Clouds: Clear
Visibility: 10 miles , 16 km
2018/04/24 00:35 KPVF 240035Z AUTO 24003KT 10SM CLR 24/20 A3003 RMK AO1
 
KNFL - Fallon Nas, Nevada, USA
Distance from station: ENE 61mi, 97km
Updated: Mon, 23-Apr-2018 4:56pm PDT
Few Clouds
Few Clouds
 Wind from N
Wind: N 10 mph , 17 km/h, Gust: 18 mph , 30 km/h
Temperature: 72°F , 22°C
Dew Point: 23°F , -5°C
Humidity: 16%
Barometer: 30.10 inHg , 1019.3 hPa
Clouds: Few Clouds
Visibility: 10 miles , 16 km
Cloud details: Few Clouds 6000 ft
Few Clouds 12000 ft
Few Clouds 25000 ft
2018/04/23 23:56 KNFL 232356Z 36009G16KT 320V030 10SM FEW060 FEW120 FEW250 22/M05 A3010 RMK AO2 SLP158 T02221050 10228 20161 56016
KGOO - Grass Valley, California, USA
Distance from station: W 70mi, 112km
Updated: Mon, 23-Apr-2018 5:35pm PDT
Clear
Clear
 Wind from W
Wind: W 7 mph , 11 km/h
Temperature: 73°F , 23°C
Dew Point: 37°F , 3°C
Humidity: 27%
Barometer: 30.03 inHg , 1016.9 hPa
Clouds: Clear
Visibility: 10 miles , 16 km
2018/04/24 00:35 KGOO 240035Z AUTO 26006KT 10SM CLR 23/03 A3003 RMK AO1
 
KAUN - Auburn Muni, California, USA
Distance from station: W 73mi, 118km
Updated: Mon, 23-Apr-2018 5:35pm PDT
Clear
Clear
 Wind from WSW
Wind: WSW 5 mph , 7 km/h
Temperature: 77°F , 25°C
Dew Point: 46°F , 8°C
Humidity: 34%
Barometer: 29.97 inHg , 1014.9 hPa
Clouds: Clear
Visibility: 10 miles , 16 km
2018/04/24 00:35 KAUN 240035Z AUTO 24004KT 10SM CLR 25/08 A2997 RMK AO1
KO22 - Columbia, California, USA
Distance from station: SSW 79mi, 127km
Updated: Mon, 23-Apr-2018 5:15pm PDT
Clear
Clear
 Wind from calm
Wind: Calm
Temperature: 77°F , 25°C
Dew Point: 45°F , 7°C
Humidity: 32%
Barometer: 30.00 inHg , 1015.9 hPa
Clouds: Clear
Visibility: 10 miles , 16 km
2018/04/24 00:15 KO22 240015Z AUTO 00000KT 10SM CLR 25/07 A3000 RMK AO1
 
KLHM - Lincoln, California, USA
Distance from station: W 88mi, 141km
Updated: Mon, 23-Apr-2018 5:35pm PDT
Clear
Clear
 Wind from calm
Wind: Calm
Temperature: 81°F , 27°C
Dew Point: 50°F , 10°C
Humidity: 34%
Barometer: 29.90 inHg , 1012.5 hPa
Clouds: Clear
Visibility: 7 miles , 11 km
2018/04/24 00:35 KLHM 240035Z AUTO 00000KT 7SM CLR 27/10 A2990 RMK AO1
KBAB - Beale Afb/Marysv, California, USA
Distance from station: W 91mi, 147km
Updated: Mon, 23-Apr-2018 4:58pm PDT
Clear
Clear
 Wind from NW
Wind: NW 3 mph , 6 km/h
Temperature: 84°F , 29°C
Dew Point: 46°F , 8°C
Humidity: 27%
Barometer: 29.89 inHg , 1012.2 hPa
Clouds: Clear
Visibility: 10 miles , 16 km
2018/04/23 23:58 KBAB 232358Z AUTO 31003KT 10SM CLR 29/08 A2989 RMK AO2 SLP124 T02870084 10291 20220 57019 $
 
KMHR - Mather Field, California, USA
Distance from station: WSW 91mi, 147km
Updated: Mon, 23-Apr-2018 3:50pm PDT
NOT Current
Clear
Clear
 Wind from SSW
Wind: SSW 3 mph , 6 km/h
Temperature: 82°F , 28°C
Dew Point: 48°F , 9°C
Humidity: 30%
Barometer: 29.92 inHg , 1013.2 hPa
Clouds: Clear
Visibility: 10 miles , 16 km
2018/04/23 22:50 KMHR 232250Z 20003KT 10SM SKC 28/09 A2992
KLOL - Lovelock, Nevada, USA
Distance from station: NE 94mi, 151km
Updated: Mon, 23-Apr-2018 4:53pm PDT
Clear
Clear
 Wind from NE
Wind: NE 10 mph , 17 km/h
Temperature: 72°F , 22°C
Dew Point: 19°F , -7°C
Humidity: 14%
Barometer: 30.11 inHg , 1019.6 hPa
Clouds: Clear
Visibility: 10 miles , 16 km
2018/04/23 23:53 KLOL 232353Z AUTO 05009KT 10SM CLR 22/M07 A3011 RMK AO2 SLP177 T02171072 10222 20167 58015
 
KMCC - Mcclellan Afb, California, USA
Distance from station: WSW 94mi, 151km
Updated: Mon, 23-Apr-2018 5:35pm PDT
Clear
Clear
 Wind from calm
Wind: Calm
Temperature: 82°F , 28°C
Dew Point: 45°F , 7°C
Humidity: 26%
Barometer: 29.92 inHg , 1013.2 hPa
Clouds: Clear
Visibility: 10 miles , 16 km
2018/04/24 00:35 KMCC 240035Z AUTO 00000KT 10SM CLR 28/07 A2992 RMK AO2
KMYV - Marysville, California, USA
Distance from station: W 99mi, 159km
Updated: Mon, 23-Apr-2018 4:53pm PDT
Clear
Clear
 Wind from calm
Wind: Calm
Temperature: 84°F , 29°C
Dew Point: 45°F , 7°C
Humidity: 25%
Barometer: 29.90 inHg , 1012.5 hPa
Clouds: Clear
Visibility: 10 miles , 16 km
2018/04/23 23:53 KMYV 232353Z AUTO 00000KT 10SM CLR 29/07 A2990 RMK AO2 SLP129 T02940072 10294 20222 58020
Honor Flight NV - Honoring all of our Veterans CoCoRaHS (Community Collaborative Rain, Hail and Snow Network) Station Number: NV-DG-2 Live Lightning Map - USA Reno Skywarn Spotter ID: DO21 AlertID Southwestern Weather Network Carson Valley Community Food Closet - providing for the needs of our community